Time,TemperatureF,DewpointF,PressureIn,WindDirection,WindDirectionDegrees,WindSpeedMPH,WindSpeedGustMPH,Humidity,HourlyPrecipIn,Conditions,Clouds,dailyrainin,SolarRadiationWatts/m^2,SoftwareType,DateUTC
2013-04-23 00:00:00,50.0,32.0,-100.00,ESE,112,0.0,-999.0,49,-99.99,,,-99.99,0.000000,,2013-04-23 04:00:00,
2013-04-23 00:44:00,50.0,32.0,-100.00,ESE,112,0.0,-999.0,49,-99.99,,,-99.99,0.000000,,2013-04-23 04:44:00,
2013-04-23 00:53:00,50.0,32.0,-100.00,ESE,112,0.0,-999.0,49,-99.99,,,-99.99,0.000000,,2013-04-23 04:53:00,
2013-04-23 01:00:00,52.0,34.0,-100.00,ESE,112,0.0,-999.0,50,-99.99,,,-99.99,0.000000,,2013-04-23 05:00:00,
2013-04-23 01:42:00,52.0,34.0,-100.00,ESE,112,0.0,-999.0,50,-99.99,,,-99.99,0.000000,,2013-04-23 05:42:00,
2013-04-23 01:52:00,52.0,34.0,-100.00,ESE,112,0.0,-999.0,50,-99.99,,,-99.99,0.000000,,2013-04-23 05:52:00,
2013-04-23 05:00:00,49.0,36.0,-100.00,ESE,112,0.0,-999.0,61,-99.99,,,-99.99,0.000000,,2013-04-23 09:00:00,
2013-04-23 05:43:00,49.0,36.0,-100.00,ESE,112,0.0,-999.0,61,-99.99,,,-99.99,0.000000,,2013-04-23 09:43:00,
2013-04-23 05:53:00,49.0,36.0,-100.00,ESE,112,0.0,-999.0,61,-99.99,,,-99.99,0.000000,,2013-04-23 09:53:00,
2013-04-23 06:00:00,50.0,37.0,-100.00,SE,135,0.0,-999.0,61,-99.99,,,-99.99,0.000000,,2013-04-23 10:00:00,
2013-04-23 06:43:00,50.0,37.0,-100.00,SE,135,0.0,-999.0,61,-99.99,,,-99.99,0.000000,,2013-04-23 10:43:00,
2013-04-23 06:52:00,50.0,37.0,-100.00,SE,135,0.0,-999.0,61,-99.99,,,-99.99,0.000000,,2013-04-23 10:52:00,
2013-04-23 07:00:00,50.0,38.0,-100.00,SE,135,0.0,-999.0,62,-99.99,,,-99.99,1.160000,,2013-04-23 11:00:00,
2013-04-23 07:43:00,50.0,38.0,-100.00,SE,135,0.0,-999.0,62,-99.99,,,-99.99,1.160000,,2013-04-23 11:43:00,
2013-04-23 07:53:00,50.0,38.0,-100.00,SE,135,0.0,-999.0,62,-99.99,,,-99.99,1.160000,,2013-04-23 11:53:00,
2013-04-23 09:00:00,51.0,40.0,-100.00,SSE,157,0.0,-999.0,66,-99.99,,,-99.99,41.759998,,2013-04-23 13:00:00,
2013-04-23 09:42:00,51.0,40.0,-100.00,SSE,157,0.0,-999.0,66,-99.99,,,-99.99,41.759998,,2013-04-23 13:42:00,
2013-04-23 09:52:00,51.0,40.0,-100.00,SSE,157,0.0,-999.0,66,-99.99,,,-99.99,41.759998,,2013-04-23 13:52:00,
2013-04-23 11:00:00,58.0,44.0,-100.00,SSE,157,0.0,-999.0,58,-99.99,,,-99.99,348.000000,,2013-04-23 15:00:00,
2013-04-23 11:43:00,58.0,44.0,-100.00,SSE,157,0.0,-999.0,58,-99.99,,,-99.99,348.000000,,2013-04-23 15:43:00,
2013-04-23 11:53:00,58.0,44.0,-100.00,SSE,157,0.0,-999.0,58,-99.99,,,-99.99,348.000000,,2013-04-23 15:53:00,
2013-04-23 12:00:00,61.0,45.0,-100.00,SSE,157,0.0,-999.0,55,-99.99,,,-99.99,385.119995,,2013-04-23 16:00:00,
2013-04-23 12:43:00,61.0,45.0,-100.00,SSE,157,0.0,-999.0,55,-99.99,,,-99.99,385.119995,,2013-04-23 16:43:00,
2013-04-23 12:53:00,61.0,45.0,-100.00,SSE,157,0.0,-999.0,55,-99.99,,,-99.99,385.119995,,2013-04-23 16:53:00,
2013-04-23 13:00:00,63.0,46.0,-100.00,SSE,157,0.0,-999.0,53,-99.99,,,-99.99,357.279999,,2013-04-23 17:00:00,
2013-04-23 13:43:00,63.0,46.0,-100.00,SSE,157,0.0,-999.0,53,-99.99,,,-99.99,357.279999,,2013-04-23 17:43:00,
2013-04-23 13:53:00,63.0,46.0,-100.00,SSE,157,0.0,-999.0,53,-99.99,,,-99.99,357.279999,,2013-04-23 17:53:00,
2013-04-23 15:00:00,63.0,48.0,-100.00,South,180,0.0,-999.0,59,0.01,,,-99.99,82.360001,,2013-04-23 19:00:00,
2013-04-23 15:42:00,63.0,48.0,-100.00,South,180,0.0,-999.0,59,0.01,,,-99.99,82.360001,,2013-04-23 19:42:00,
2013-04-23 15:52:00,63.0,48.0,-100.00,South,180,0.0,-999.0,59,0.01,,,-99.99,82.360001,,2013-04-23 19:52:00,
2013-04-23 17:00:00,51.0,51.0,-100.00,SW,225,0.0,-999.0,100,0.09,,,-99.99,63.799999,,2013-04-23 21:00:00,
2013-04-23 17:43:00,51.0,51.0,-100.00,SW,225,0.0,-999.0,100,0.09,,,-99.99,63.799999,,2013-04-23 21:43:00,
2013-04-23 17:52:00,51.0,51.0,-100.00,SW,225,0.0,-999.0,100,0.09,,,-99.99,63.799999,,2013-04-23 21:52:00,
2013-04-23 18:00:00,47.0,47.0,-100.00,West,270,0.0,-999.0,100,0.06,,,-99.99,23.200001,,2013-04-23 22:00:00,
2013-04-23 18:42:00,47.0,47.0,-100.00,West,270,0.0,-999.0,100,0.06,,,-99.99,23.200001,,2013-04-23 22:42:00,
2013-04-23 18:52:00,47.0,47.0,-100.00,West,270,0.0,-999.0,100,0.06,,,-99.99,23.200001,,2013-04-23 22:52:00,
2013-04-23 19:00:00,40.0,40.0,-100.00,NW,315,0.0,-999.0,102,0.08,,,-99.99,22.040001,,2013-04-23 23:00:00,
2013-04-23 19:42:00,40.0,40.0,-100.00,NW,315,0.0,-999.0,102,0.08,,,-99.99,22.040001,,2013-04-23 23:42:00,
2013-04-23 19:52:00,40.0,40.0,-100.00,NW,315,0.0,-999.0,102,0.08,,,-99.99,22.040001,,2013-04-23 23:52:00,
2013-04-23 21:00:00,38.0,38.0,-100.00,NW,315,0.0,-999.0,102,0.05,,,-99.99,1.160000,,2013-04-24 01:00:00,
2013-04-23 21:43:00,38.0,38.0,-100.00,NW,315,0.0,-999.0,102,0.05,,,-99.99,1.160000,,2013-04-24 01:43:00,
2013-04-23 21:52:00,38.0,38.0,-100.00,NW,315,0.0,-999.0,102,0.05,,,-99.99,1.160000,,2013-04-24 01:52:00,
2013-04-23 22:00:00,38.0,38.0,-100.00,NW,315,0.0,-999.0,102,0.09,,,-99.99,0.000000,,2013-04-24 02:00:00,
2013-04-23 23:00:00,38.0,38.0,-100.00,NW,315,0.0,-999.0,103,0.09,,,-99.99,0.000000,,2013-04-24 03:00:00,
2013-04-23 23:53:00,38.0,38.0,-100.00,NW,315,0.0,-999.0,103,0.09,,,-99.99,0.000000,,2013-04-24 03:53:00,